Time;durP1;ratioP1;P1;durP2;ratioP2;P2;SDS_P1;SDS_P2;PMS_P1;PMS_P2;Temp;Humidity;BMP_temperature;BMP_pressure;BME280_temperature;BME280_humidity;BME280_pressure;Samples;Min_cycle;Max_cycle;Signal;HPM_P1;HPM_P2
2022/03/11 00:01:16;;;;;;;15.47;7.77;;;4.20;99.90;;;;;;4937451;29;20050;-87
2022/03/11 00:03:42;;;;;;;17.10;8.40;;;4.10;99.90;;;;;;4938434;29;20070;-87
2022/03/11 00:06:07;;;;;;;17.00;7.40;;;4.10;99.90;;;;;;4937765;29;20487;-88
2022/03/11 00:08:33;;;;;;;19.43;7.60;;;4.10;99.90;;;;;;4937544;29;20205;-87
2022/03/11 00:10:59;;;;;;;16.57;8.07;;;4.00;99.90;;;;;;4937763;29;20043;-87
2022/03/11 00:13:24;;;;;;;18.87;8.37;;;4.00;99.90;;;;;;4937899;29;20376;-87
2022/03/11 00:15:50;;;;;;;15.63;7.50;;;3.90;99.90;;;;;;4937136;29;20566;-87
2022/03/11 00:18:16;;;;;;;16.63;7.90;;;3.90;99.90;;;;;;4937791;29;20074;-87
2022/03/11 00:20:42;;;;;;;15.07;7.57;;;3.90;99.90;;;;;;4937902;29;20147;-87
2022/03/11 00:23:08;;;;;;;15.87;7.33;;;3.90;99.90;;;;;;4954086;29;20559;-87
2022/03/11 00:25:34;;;;;;;15.43;7.47;;;3.90;99.90;;;;;;4937882;29;20059;-87
2022/03/11 00:27:59;;;;;;;16.57;7.60;;;3.80;99.90;;;;;;4954908;28;20121;-87
2022/03/11 00:30:26;;;;;;;15.17;7.27;;;3.80;99.90;;;;;;4936604;29;20078;-87
2022/03/11 00:32:52;;;;;;;15.80;7.47;;;3.80;99.90;;;;;;4938017;29;20078;-87
2022/03/11 00:35:20;;;;;;;16.93;7.10;;;3.80;99.90;;;;;;4937294;29;20515;-86
2022/03/11 00:37:45;;;;;;;15.37;7.10;;;3.70;99.90;;;;;;4936941;29;20498;-87
2022/03/11 00:40:13;;;;;;;16.33;6.73;;;3.70;99.90;;;;;;4937346;29;20043;-87
2022/03/11 00:42:39;;;;;;;15.47;7.47;;;3.70;99.90;;;;;;4954996;29;20039;-87
2022/03/11 00:45:05;;;;;;;13.97;7.03;;;3.70;99.90;;;;;;4936486;29;20051;-88
2022/03/11 00:47:31;;;;;;;14.20;7.20;;;3.70;99.90;;;;;;4938022;29;20070;-87
2022/03/11 00:49:56;;;;;;;14.13;6.87;;;3.70;99.90;;;;;;4937508;29;20491;-87
2022/03/11 00:52:22;;;;;;;16.33;8.23;;;3.70;99.90;;;;;;4936363;29;20078;-87
2022/03/11 00:54:47;;;;;;;14.30;6.50;;;3.80;99.90;;;;;;4937604;29;20043;-87
2022/03/11 00:57:13;;;;;;;15.40;7.40;;;3.80;99.90;;;;;;4952094;23;20055;-86
2022/03/11 00:59:39;;;;;;;14.93;7.10;;;4.00;99.90;;;;;;4932189;29;20065;-87
2022/03/11 01:02:04;;;;;;;15.67;7.00;;;3.70;99.90;;;;;;4935326;29;20051;-87
2022/03/11 01:04:30;;;;;;;16.27;7.20;;;3.70;99.90;;;;;;4934959;29;20047;-87
2022/03/11 01:06:55;;;;;;;15.53;7.83;;;3.60;99.90;;;;;;4934094;29;20047;-87
2022/03/11 01:09:21;;;;;;;14.77;6.70;;;3.60;99.90;;;;;;4935408;29;20377;-87
2022/03/11 01:11:46;;;;;;;15.17;7.40;;;3.60;99.90;;;;;;4933640;29;20104;-87
2022/03/11 01:14:12;;;;;;;15.27;7.30;;;3.60;99.90;;;;;;4934182;29;20048;-87
2022/03/11 01:16:37;;;;;;;16.17;7.33;;;3.50;99.90;;;;;;4935857;29;20103;-87
2022/03/11 01:19:03;;;;;;;13.53;6.83;;;3.60;99.90;;;;;;4933585;29;20043;-88
2022/03/11 01:21:29;;;;;;;15.07;7.27;;;3.60;99.90;;;;;;4935217;29;20060;-87
2022/03/11 01:23:54;;;;;;;15.80;7.67;;;3.60;99.90;;;;;;4935817;29;20440;-87
2022/03/11 01:26:20;;;;;;;15.53;7.23;;;3.60;99.90;;;;;;4933320;29;20469;-87
2022/03/11 01:28:46;;;;;;;16.47;7.67;;;3.50;99.90;;;;;;4934586;29;20504;-87
2022/03/11 01:31:12;;;;;;;16.30;7.50;;;3.50;99.90;;;;;;4934158;29;20048;-87
2022/03/11 01:33:42;;;;;;;16.77;8.20;;;3.50;99.90;;;;;;4933221;29;20055;-87
2022/03/11 01:36:09;;;;;;;16.00;7.53;;;3.50;99.90;;;;;;4933452;29;20098;-87
2022/03/11 01:38:34;;;;;;;15.57;7.57;;;3.50;99.90;;;;;;4934793;29;20048;-87
2022/03/11 01:41:00;;;;;;;17.37;7.67;;;3.50;99.90;;;;;;4937148;29;20090;-87
2022/03/11 01:43:27;;;;;;;18.13;7.90;;;3.50;99.90;;;;;;4937947;29;20048;-87
2022/03/11 01:45:53;;;;;;;15.90;7.73;;;3.50;99.90;;;;;;4939111;29;20562;-87
2022/03/11 01:48:19;;;;;;;17.47;7.83;;;3.50;99.90;;;;;;4936609;29;20079;-87
2022/03/11 01:50:45;;;;;;;17.13;8.03;;;3.50;99.90;;;;;;4937882;29;20043;-86
2022/03/11 01:53:12;;;;;;;17.83;8.47;;;3.50;99.90;;;;;;4937195;29;20126;-87
2022/03/11 01:55:38;;;;;;;17.37;8.00;;;3.60;99.90;;;;;;4936664;29;20055;-87
2022/03/11 01:58:06;;;;;;;17.47;7.67;;;3.50;99.90;;;;;;4945083;28;20057;-87
2022/03/11 02:00:35;;;;;;;17.37;7.93;;;3.50;99.90;;;;;;4940387;29;20059;-87
2022/03/11 02:03:01;;;;;;;18.33;8.37;;;3.50;99.90;;;;;;4957222;29;20043;-86
2022/03/11 02:05:28;;;;;;;17.17;8.50;;;3.50;99.90;;;;;;4957679;29;20054;-87
2022/03/11 02:07:57;;;;;;;18.40;9.03;;;3.50;99.90;;;;;;4957347;29;20055;-87
2022/03/11 02:10:23;;;;;;;18.17;8.27;;;3.40;99.90;;;;;;4940305;29;20244;-87
2022/03/11 02:12:49;;;;;;;18.20;8.93;;;3.30;99.90;;;;;;4957720;29;20050;-87
2022/03/11 02:15:14;;;;;;;19.63;8.80;;;3.30;99.90;;;;;;4956935;29;20138;-87
2022/03/11 02:17:40;;;;;;;20.57;9.13;;;3.20;99.90;;;;;;4940293;29;20043;-87
2022/03/11 02:20:06;;;;;;;18.80;9.17;;;3.20;99.90;;;;;;4939919;29;20047;-87
2022/03/11 02:22:36;;;;;;;18.10;9.40;;;3.20;99.90;;;;;;4939427;29;20047;-87
2022/03/11 02:25:04;;;;;;;18.07;8.93;;;3.20;99.90;;;;;;4940395;29;20105;-87
2022/03/11 02:27:35;;;;;;;19.57;9.80;;;3.20;99.90;;;;;;4939892;29;20187;-87
2022/03/11 02:30:02;;;;;;;19.87;9.97;;;3.20;99.90;;;;;;4939821;29;20137;-87
2022/03/11 02:32:27;;;;;;;19.07;9.27;;;3.20;99.90;;;;;;4940009;29;20082;-87
2022/03/11 02:34:53;;;;;;;20.37;9.63;;;3.10;99.90;;;;;;4940165;29;20085;-87
2022/03/11 02:37:19;;;;;;;20.57;9.53;;;3.10;99.90;;;;;;4939078;29;20051;-86
2022/03/11 02:39:44;;;;;;;21.50;9.83;;;3.10;99.90;;;;;;4940222;29;20077;-87
2022/03/11 02:42:10;;;;;;;20.90;10.43;;;3.00;99.90;;;;;;4956762;29;20051;-87
2022/03/11 02:44:36;;;;;;;20.57;10.13;;;3.10;99.90;;;;;;4939420;29;20317;-87
2022/03/11 02:47:02;;;;;;;19.47;10.37;;;3.00;99.90;;;;;;4957210;29;20074;-87
2022/03/11 02:49:28;;;;;;;21.73;10.67;;;3.00;99.90;;;;;;4939725;29;20054;-87
2022/03/11 02:51:56;;;;;;;19.17;10.17;;;3.00;99.90;;;;;;4938923;29;20051;-87
2022/03/11 02:54:23;;;;;;;21.50;10.07;;;2.90;99.90;;;;;;4939260;29;20047;-86
2022/03/11 02:56:48;;;;;;;20.47;10.33;;;2.90;99.90;;;;;;4939946;29;20047;-86
2022/03/11 02:59:14;;;;;;;21.17;11.10;;;2.80;99.90;;;;;;4935582;29;20051;-86
2022/03/11 03:01:39;;;;;;;23.17;11.37;;;2.80;99.90;;;;;;4937606;29;20055;-87
2022/03/11 03:04:05;;;;;;;22.13;11.23;;;2.70;99.90;;;;;;4936425;29;20048;-86
2022/03/11 03:06:30;;;;;;;21.87;11.27;;;2.70;99.90;;;;;;4936091;29;20044;-87
2022/03/11 03:08:56;;;;;;;22.43;11.23;;;2.60;99.90;;;;;;4936303;29;20052;-86
2022/03/11 03:11:22;;;;;;;23.97;10.93;;;2.60;99.90;;;;;;4936420;29;20336;-87
2022/03/11 03:13:47;;;;;;;21.27;11.27;;;2.60;99.90;;;;;;4937071;29;20087;-86
2022/03/11 03:16:13;;;;;;;25.13;12.80;;;2.50;99.90;;;;;;4937378;29;20048;-87
2022/03/11 03:18:38;;;;;;;24.63;11.73;;;2.50;99.90;;;;;;4935585;29;20043;-86
2022/03/11 03:21:04;;;;;;;23.63;11.70;;;2.50;99.90;;;;;;4937203;29;20487;-87
2022/03/11 03:23:30;;;;;;;23.60;12.03;;;2.50;99.90;;;;;;4935816;29;20151;-87
2022/03/11 03:25:55;;;;;;;26.70;11.47;;;2.50;99.90;;;;;;4936004;29;20140;-87
2022/03/11 03:28:22;;;;;;;22.67;12.57;;;2.50;99.90;;;;;;4935979;29;20043;-86
2022/03/11 03:30:47;;;;;;;24.90;12.73;;;2.50;99.90;;;;;;4936275;29;20036;-87
2022/03/11 03:33:13;;;;;;;24.67;11.80;;;2.50;99.90;;;;;;4936214;29;20491;-87
2022/03/11 03:35:39;;;;;;;21.70;11.77;;;2.50;99.90;;;;;;4935926;29;20047;-86
2022/03/11 03:38:04;;;;;;;24.90;12.67;;;2.50;99.90;;;;;;4935655;29;20055;-87
2022/03/11 03:40:30;;;;;;;23.80;12.63;;;2.40;99.90;;;;;;4935186;29;20048;-87
2022/03/11 03:42:55;;;;;;;23.13;12.83;;;2.40;99.90;;;;;;4935534;29;20040;-86
2022/03/11 03:45:21;;;;;;;27.03;13.60;;;2.40;99.90;;;;;;4935636;29;20451;-87
2022/03/11 03:47:46;;;;;;;26.00;12.97;;;2.40;99.90;;;;;;4934975;29;20040;-87
2022/03/11 03:50:12;;;;;;;25.20;12.90;;;2.40;99.90;;;;;;4935167;29;20055;-86
2022/03/11 03:52:38;;;;;;;24.63;12.00;;;2.30;99.90;;;;;;4936819;29;20102;-87
2022/03/11 03:55:04;;;;;;;24.50;13.60;;;2.30;99.90;;;;;;4934340;29;20047;-87
2022/03/11 03:57:31;;;;;;;24.87;12.93;;;2.30;99.90;;;;;;4937569;29;20044;-87
2022/03/11 03:59:57;;;;;;;25.07;12.73;;;2.30;99.90;;;;;;4938349;29;20094;-87
2022/03/11 04:02:22;;;;;;;24.77;12.50;;;2.30;99.90;;;;;;4936824;29;20495;-87
2022/03/11 04:04:48;;;;;;;25.10;12.83;;;2.20;99.90;;;;;;4938643;29;20047;-86
2022/03/11 04:07:14;;;;;;;26.17;13.40;;;2.20;99.90;;;;;;4938169;29;20134;-86
2022/03/11 04:09:39;;;;;;;26.07;13.73;;;2.20;99.90;;;;;;4937669;29;20068;-87
2022/03/11 04:12:05;;;;;;;28.87;13.90;;;2.10;99.90;;;;;;4938243;29;20053;-87
2022/03/11 04:14:31;;;;;;;26.37;13.13;;;2.10;99.90;;;;;;4954473;29;20046;-87
2022/03/11 04:16:56;;;;;;;25.10;13.10;;;2.00;99.90;;;;;;4938453;29;20143;-86
2022/03/11 04:19:22;;;;;;;29.57;14.87;;;2.00;99.90;;;;;;4938169;29;20051;-87
2022/03/11 04:21:48;;;;;;;26.70;13.17;;;2.00;99.90;;;;;;4938044;29;20141;-86
2022/03/11 04:24:14;;;;;;;26.90;13.33;;;2.00;99.90;;;;;;4938250;29;20047;-86
2022/03/11 04:26:44;;;;;;;28.50;13.73;;;2.00;99.90;;;;;;4955602;29;20058;-86
2022/03/11 04:29:11;;;;;;;27.10;15.03;;;1.90;99.90;;;;;;4954316;29;20058;-86
2022/03/11 04:31:37;;;;;;;26.20;13.93;;;1.90;99.90;;;;;;4937946;29;20502;-87
2022/03/11 04:34:04;;;;;;;29.83;14.13;;;1.90;99.90;;;;;;4937878;29;20059;-87
2022/03/11 04:36:33;;;;;;;27.80;14.40;;;1.80;99.90;;;;;;4954604;29;20054;-86
2022/03/11 04:39:02;;;;;;;28.20;13.70;;;1.80;99.90;;;;;;4954997;29;20491;-87
2022/03/11 04:41:28;;;;;;;27.70;14.47;;;1.80;99.90;;;;;;4937766;29;20055;-86
2022/03/11 04:43:53;;;;;;;26.90;14.63;;;1.70;99.90;;;;;;4954795;29;20039;-87
2022/03/11 04:46:19;;;;;;;28.67;14.43;;;1.70;99.90;;;;;;4937960;29;20063;-87
2022/03/11 04:48:47;;;;;;;27.40;13.73;;;1.70;99.90;;;;;;4937905;29;20047;-87
2022/03/11 04:51:14;;;;;;;27.60;13.47;;;1.70;99.90;;;;;;4953820;29;20534;-86
2022/03/11 04:53:39;;;;;;;30.77;14.47;;;1.70;99.90;;;;;;4937810;29;20106;-86
2022/03/11 04:56:05;;;;;;;27.00;14.00;;;1.60;99.90;;;;;;4937468;29;20051;-86
2022/03/11 04:58:31;;;;;;;28.37;14.20;;;1.60;99.90;;;;;;4936571;29;20047;-86
2022/03/11 05:00:56;;;;;;;27.10;13.80;;;1.60;99.90;;;;;;4934122;29;20070;-86
2022/03/11 05:03:22;;;;;;;33.07;14.07;;;1.60;99.90;;;;;;4929080;29;20352;-86
2022/03/11 05:05:47;;;;;;;27.67;13.90;;;1.50;99.90;;;;;;4936243;29;20050;-86
2022/03/11 05:08:13;;;;;;;29.80;14.70;;;1.50;99.90;;;;;;4953878;29;20130;-87
2022/03/11 05:10:38;;;;;;;29.30;14.90;;;1.50;99.90;;;;;;4954456;29;20047;-86
2022/03/11 05:13:04;;;;;;;26.87;14.43;;;1.50;99.90;;;;;;4936951;29;20047;-86
2022/03/11 05:15:30;;;;;;;29.50;14.40;;;1.40;99.90;;;;;;4954745;29;20553;-86
2022/03/11 05:17:55;;;;;;;27.30;13.50;;;1.40;99.90;;;;;;4953994;29;20374;-86
2022/03/11 05:20:21;;;;;;;29.20;14.20;;;1.40;99.90;;;;;;4954675;29;20074;-86
2022/03/11 05:22:47;;;;;;;31.60;14.30;;;1.40;99.90;;;;;;4937016;29;20043;-86
2022/03/11 05:25:13;;;;;;;27.77;14.63;;;1.40;99.90;;;;;;4936479;29;20462;-86
2022/03/11 05:27:39;;;;;;;27.40;13.83;;;1.40;99.90;;;;;;4937278;29;20035;-86
2022/03/11 05:30:06;;;;;;;28.77;14.67;;;1.40;99.90;;;;;;4937080;29;20074;-86
2022/03/11 05:32:31;;;;;;;28.53;14.97;;;1.40;99.90;;;;;;4936592;29;20067;-86
2022/03/11 05:34:57;;;;;;;30.07;14.80;;;1.40;99.90;;;;;;4937782;29;20527;-86
2022/03/11 05:37:22;;;;;;;30.13;15.53;;;1.40;99.90;;;;;;4954150;29;20814;-86
2022/03/11 05:39:48;;;;;;;29.27;15.20;;;1.40;99.90;;;;;;4936403;29;20044;-86
2022/03/11 05:42:14;;;;;;;29.77;14.43;;;1.30;99.90;;;;;;4954333;29;20118;-86
2022/03/11 05:44:39;;;;;;;27.67;14.10;;;1.30;99.90;;;;;;4937614;29;20045;-86
2022/03/11 05:47:05;;;;;;;32.37;14.57;;;1.30;99.90;;;;;;4936043;29;20102;-86
2022/03/11 05:49:30;;;;;;;28.73;14.83;;;1.30;99.90;;;;;;4937200;29;20050;-86
2022/03/11 05:51:56;;;;;;;26.80;13.67;;;1.70;99.90;;;;;;4937369;29;20391;-86
2022/03/11 05:54:22;;;;;;;29.50;15.00;;;1.30;99.90;;;;;;4936082;29;20399;-86
2022/03/11 05:56:53;;;;;;;28.80;14.30;;;1.30;99.90;;;;;;4937254;29;20059;-86
2022/03/11 05:59:19;;;;;;;29.80;14.33;;;1.30;99.90;;;;;;4936350;29;20052;-86
2022/03/11 06:01:44;;;;;;;28.37;13.83;;;1.30;99.90;;;;;;4953845;29;20051;-86
2022/03/11 06:04:11;;;;;;;28.80;14.53;;;1.20;99.90;;;;;;4936909;29;20047;-86
2022/03/11 06:06:37;;;;;;;29.83;13.73;;;1.20;99.90;;;;;;4937176;29;20113;-86
2022/03/11 06:09:03;;;;;;;28.97;13.70;;;1.30;99.90;;;;;;4936500;29;20509;-86
2022/03/11 06:11:28;;;;;;;28.73;14.70;;;1.20;99.90;;;;;;4954104;29;20156;-86
2022/03/11 06:13:54;;;;;;;29.20;14.33;;;1.20;99.90;;;;;;4937267;29;20036;-86
2022/03/11 06:16:20;;;;;;;32.23;14.17;;;1.20;99.90;;;;;;4952824;29;20097;-86
2022/03/11 06:18:45;;;;;;;27.90;14.10;;;1.20;99.90;;;;;;4953954;29;20163;-86
2022/03/11 06:21:11;;;;;;;29.13;14.47;;;1.20;99.90;;;;;;4935988;29;20516;-86
2022/03/11 06:23:37;;;;;;;30.60;14.40;;;1.10;99.90;;;;;;4936596;29;20058;-86
2022/03/11 06:26:03;;;;;;;29.77;14.77;;;1.10;99.90;;;;;;4956857;28;20047;-85
2022/03/11 06:28:29;;;;;;;32.10;14.37;;;1.10;99.90;;;;;;4939945;29;20051;-85
2022/03/11 06:30:55;;;;;;;29.73;14.30;;;2.00;99.90;;;;;;4940011;29;20055;-86
2022/03/11 06:33:21;;;;;;;26.53;13.57;;;1.40;99.90;;;;;;4939636;29;20053;-85
2022/03/11 06:35:47;;;;;;;29.50;13.97;;;1.20;99.90;;;;;;4939372;29;20050;-85
2022/03/11 06:38:12;;;;;;;29.37;14.10;;;1.20;99.90;;;;;;4939460;29;20049;-86
2022/03/11 06:40:38;;;;;;;29.27;13.87;;;1.30;99.90;;;;;;4940151;29;20395;-86
2022/03/11 06:43:04;;;;;;;30.53;14.73;;;1.30;99.90;;;;;;4939051;29;20047;-86
2022/03/11 06:45:29;;;;;;;26.90;13.80;;;1.40;99.90;;;;;;4940152;29;20059;-86
2022/03/11 06:47:55;;;;;;;27.67;14.00;;;1.40;99.90;;;;;;4939738;29;20039;-86
2022/03/11 06:50:20;;;;;;;28.07;14.73;;;1.40;99.90;;;;;;4938786;29;20051;-86
2022/03/11 06:52:46;;;;;;;27.90;13.87;;;1.40;99.90;;;;;;4939574;29;20047;-86
2022/03/11 06:55:12;;;;;;;27.03;13.40;;;1.50;99.90;;;;;;4956892;29;20054;-86
2022/03/11 06:57:38;;;;;;;29.90;13.40;;;1.60;99.90;;;;;;4938661;29;20072;-86
2022/03/11 07:00:05;;;;;;;28.27;14.17;;;1.80;99.90;;;;;;4939069;29;20154;-86
2022/03/11 07:02:31;;;;;;;28.73;13.80;;;1.70;99.90;;;;;;4939391;29;20071;-86
2022/03/11 07:04:57;;;;;;;26.93;14.27;;;1.70;99.90;;;;;;4939001;29;20055;-86
2022/03/11 07:07:22;;;;;;;27.53;14.20;;;1.80;99.90;;;;;;4938954;29;20175;-86
2022/03/11 07:09:48;;;;;;;26.77;13.00;;;1.80;99.90;;;;;;4939687;29;20411;-87
2022/03/11 07:12:14;;;;;;;26.20;13.57;;;1.80;99.90;;;;;;4938389;29;20094;-85
2022/03/11 07:14:41;;;;;;;26.90;13.90;;;1.90;99.90;;;;;;4939236;29;20035;-90
2022/03/11 07:17:07;;;;;;;29.93;14.70;;;1.90;99.90;;;;;;4939111;29;20055;-90
2022/03/11 07:19:36;;;;;;;26.10;12.80;;;2.00;99.90;;;;;;4939734;29;20126;-90
2022/03/11 07:22:08;;;;;;;29.10;14.37;;;1.90;99.90;;;;;;4939306;29;20487;-89
2022/03/11 07:24:34;;;;;;;26.83;13.63;;;1.90;99.90;;;;;;4939241;29;20042;-91
2022/03/11 07:27:00;;;;;;;25.57;13.53;;;3.50;99.90;;;;;;4945209;29;20047;-91
2022/03/11 07:29:25;;;;;;;28.77;14.17;;;1.90;99.90;;;;;;4962208;29;20079;-90
2022/03/11 07:31:51;;;;;;;24.20;12.67;;;2.60;99.90;;;;;;4939224;29;20470;-90
2022/03/11 07:34:17;;;;;;;28.40;13.63;;;2.10;99.90;;;;;;4938946;29;20065;-89
2022/03/11 07:36:45;;;;;;;27.77;14.43;;;2.20;99.90;;;;;;4938226;29;20090;-89
2022/03/11 07:39:20;;;;;;;27.57;13.63;;;2.30;99.90;;;;;;4939330;29;20043;-92
2022/03/11 07:41:52;;;;;;;27.97;13.40;;;2.40;99.90;;;;;;4938748;29;20043;-88
2022/03/11 07:44:24;;;;;;;27.13;14.07;;;2.40;99.90;;;;;;4945002;23;20473;-90
2022/03/11 07:46:50;;;;;;;27.70;13.80;;;2.50;99.90;;;;;;4938203;29;20055;-90
2022/03/11 07:49:15;;;;;;;28.07;14.80;;;2.50;99.90;;;;;;4938284;29;20050;-90
2022/03/11 07:51:47;;;;;;;27.97;14.03;;;2.70;99.90;;;;;;4939485;29;20054;-90
2022/03/11 07:54:28;;;;;;;27.53;13.47;;;3.10;99.90;;;;;;4939033;29;20055;-90
2022/03/11 07:56:54;;;;;;;26.47;13.77;;;2.60;99.90;;;;;;4957578;29;20047;-89
2022/03/11 07:59:20;;;;;;;25.67;13.37;;;2.90;99.90;;;;;;4955894;29;20050;-87
2022/03/11 08:01:49;;;;;;;26.07;13.30;;;3.10;99.90;;;;;;4938336;29;20134;-89
2022/03/11 08:04:30;;;;;;;26.10;13.27;;;3.20;99.90;;;;;;4939111;29;20058;-89
2022/03/11 08:07:06;;;;;;;27.53;13.73;;;3.40;99.90;;;;;;4938051;29;20163;-89
2022/03/11 08:09:44;;;;;;;25.47;13.37;;;3.20;99.90;;;;;;4955666;29;20534;-89
2022/03/11 08:12:22;;;;;;;26.40;13.07;;;3.30;99.90;;;;;;4938799;29;20078;-89
2022/03/11 08:15:03;;;;;;;27.07;13.40;;;3.20;99.90;;;;;;4955486;29;20074;-90
2022/03/11 08:17:32;;;;;;;27.97;13.60;;;3.80;99.90;;;;;;4938476;29;20066;-88
2022/03/11 08:19:58;;;;;;;27.50;14.30;;;4.50;99.90;;;;;;4938376;29;20039;-88
2022/03/11 08:22:26;;;;;;;24.47;13.07;;;3.70;99.90;;;;;;4937152;29;20078;-87
2022/03/11 08:25:13;;;;;;;25.13;13.63;;;4.80;99.90;;;;;;4956137;29;20044;-91
2022/03/11 08:27:48;;;;;;;25.40;13.93;;;4.10;99.90;;;;;;4938478;29;20127;-92
2022/03/11 08:30:18;;;;;;;25.53;13.97;;;4.70;99.90;;;;;;4938525;29;20043;-91
2022/03/11 08:32:53;;;;;;;24.60;13.23;;;4.90;99.90;;;;;;4938447;29;20039;-89
2022/03/11 08:35:31;;;;;;;25.30;13.23;;;4.40;99.90;;;;;;4954156;29;20094;-90
2022/03/11 08:38:06;;;;;;;27.37;12.97;;;4.80;99.90;;;;;;4941510;23;20109;-89
2022/03/11 08:40:35;;;;;;;25.40;13.33;;;4.30;99.90;;;;;;4880141;29;20148;-89
2022/03/11 08:43:12;;;;;;;26.40;13.23;;;6.10;99.90;;;;;;4897601;29;20041;-90
2022/03/11 08:45:38;;;;;;;25.97;14.13;;;4.80;99.90;;;;;;4881582;29;20552;-90
2022/03/11 08:50:30;;;;;;;27.53;13.87;;;4.70;99.90;;;;;;4957561;23;20091;-88
2022/03/11 08:53:04;;;;;;;26.27;14.10;;;5.00;99.90;;;;;;4918391;29;20035;-88
2022/03/11 08:55:30;;;;;;;26.43;13.77;;;4.80;99.90;;;;;;4918909;29;20106;-89
2022/03/11 08:58:02;;;;;;;26.90;13.33;;;4.80;99.90;;;;;;4918307;29;20047;-88
2022/03/11 09:00:44;;;;;;;30.10;14.17;;;4.90;99.90;;;;;;4918857;29;20071;-89
2022/03/11 09:03:13;;;;;;;24.63;14.17;;;5.40;99.90;;;;;;4917565;29;20054;-89
2022/03/11 09:05:54;;;;;;;26.60;14.67;;;7.40;99.90;;;;;;4935992;29;20047;-89
2022/03/11 09:08:20;;;;;;;23.30;12.57;;;5.30;99.90;;;;;;4918582;29;20399;-89
2022/03/11 09:11:10;;;;;;;25.47;13.87;;;5.40;99.90;;;;;;4916626;29;20051;-88
2022/03/11 09:13:36;;;;;;;25.40;14.20;;;6.30;99.90;;;;;;4918954;29;20055;-88
2022/03/11 09:16:03;;;;;;;25.43;13.57;;;6.10;99.90;;;;;;4918233;29;20509;-88
2022/03/11 09:18:47;;;;;;;25.93;13.63;;;5.50;99.90;;;;;;4936781;29;20120;-88
2022/03/11 09:21:22;;;;;;;26.20;13.82;;;7.20;99.90;;;;;;4919694;29;20059;-89
2022/03/11 09:23:49;;;;;;;25.20;13.27;;;5.80;99.90;;;;;;4919965;29;20511;-91
2022/03/11 09:26:17;;;;;;;25.60;14.20;;;6.90;99.90;;;;;;4934165;29;20067;-90
2022/03/11 09:28:43;;;;;;;24.50;13.60;;;5.90;99.90;;;;;;4929883;29;20047;-90
2022/03/11 09:31:09;;;;;;;26.10;12.97;;;6.10;99.90;;;;;;4953690;29;20035;-88
2022/03/11 09:33:53;;;;;;;24.27;14.00;;;6.20;99.90;;;;;;4937258;29;20082;-88
2022/03/11 09:36:18;;;;;;;24.33;13.32;;;6.10;99.90;;;;;;4937203;29;20051;-88
2022/03/11 09:38:53;;;;;;;26.93;13.27;;;7.30;99.90;;;;;;4936730;29;20085;-89
2022/03/11 09:41:20;;;;;;;24.17;12.63;;;6.70;99.90;;;;;;4937775;29;20117;-89
2022/03/11 09:43:49;;;;;;;24.53;13.67;;;6.50;99.90;;;;;;4938163;29;20043;-88
2022/03/11 09:46:25;;;;;;;25.47;14.13;;;6.40;99.90;;;;;;4928852;23;20060;-88
2022/03/11 09:49:01;;;;;;;25.37;14.37;;;7.40;99.90;;;;;;4880694;29;20052;-88
2022/03/11 09:51:43;;;;;;;25.40;14.43;;;8.20;99.90;;;;;;4883872;29;20049;-91
2022/03/11 09:54:15;;;;;;;26.40;14.63;;;7.70;99.90;;;;;;4885980;29;20045;-90
2022/03/11 09:56:53;;;;;;;24.30;13.47;;;7.40;99.90;;;;;;4881743;29;20052;-94
2022/03/11 09:59:31;;;;;;;25.37;13.63;;;7.00;99.90;;;;;;4881473;29;20082;-92
2022/03/11 10:02:11;;;;;;;26.13;13.90;;;7.10;99.90;;;;;;4885524;29;20052;-89
2022/03/11 10:04:36;;;;;;;24.60;14.07;;;7.30;99.90;;;;;;4885187;29;20087;-90
2022/03/11 10:07:49;;;;;;;28.53;14.00;;;8.00;99.90;;;;;;4904976;29;20041;-93
2022/03/11 10:10:17;;;;;;;23.97;13.60;;;7.60;99.90;;;;;;4875776;29;20068;-94
2022/03/11 10:12:50;;;;;;;24.30;13.53;;;8.20;99.90;;;;;;4901271;29;20540;-90
2022/03/11 10:15:18;;;;;;;25.08;13.60;;;8.00;99.90;;;;;;4900745;29;20186;-91
2022/03/11 10:17:52;;;;;;;23.80;13.90;;;8.10;99.90;;;;;;4901104;29;20052;-94
2022/03/11 10:20:21;;;;;;;22.70;13.35;;;8.40;99.90;;;;;;4883419;29;20050;-93
2022/03/11 10:23:05;;;;;;;24.77;14.07;;;8.20;99.90;;;;;;4884151;29;20143;-90
2022/03/11 10:25:34;;;;;;;26.77;13.77;;;8.50;99.90;;;;;;4883572;29;20127;-88
2022/03/11 10:28:10;;;;;;;24.47;13.87;;;7.40;99.90;;;;;;4882947;29;20048;-89
2022/03/11 10:30:38;;;;;;;24.33;13.18;;;8.40;99.90;;;;;;4883842;29;20045;-89
2022/03/11 10:33:14;;;;;;;22.92;13.85;;;9.80;99.90;;;;;;4900263;29;20055;-90
2022/03/11 10:35:52;;;;;;;25.25;14.30;;;8.80;99.90;;;;;;4899834;29;20052;-89
2022/03/11 10:38:20;;;;;;;25.38;13.65;;;8.80;99.90;;;;;;4899979;29;20041;-86
2022/03/11 10:40:59;;;;;;;21.93;13.07;;;9.40;99.90;;;;;;4883586;29;20100;-89
2022/03/11 10:43:32;;;;;;;26.83;13.43;;;10.20;99.90;;;;;;4882722;29;20056;-89
2022/03/11 10:49:48;;;;;;;21.30;13.02;;;9.50;98.70;;;;;;4903490;29;20136;-89
2022/03/11 10:52:59;;;;;;;22.95;12.85;;;9.60;97.80;;;;;;4913298;29;20115;-89
2022/03/11 10:55:41;;;;;;;22.58;13.18;;;9.60;97.50;;;;;;4901079;29;20439;-88
2022/03/11 10:58:16;;;;;;;20.98;13.40;;;10.50;97.00;;;;;;4901881;29;20052;-89
2022/03/11 11:00:51;;;;;;;22.02;13.27;;;9.70;97.40;;;;;;4902279;29;20092;-91
2022/03/11 11:03:17;;;;;;;20.63;12.70;;;9.90;96.30;;;;;;4901179;29;20117;-91
2022/03/11 11:05:56;;;;;;;24.63;13.35;;;11.60;97.80;;;;;;4901683;29;20044;-89
2022/03/11 11:08:22;;;;;;;20.20;12.85;;;10.10;95.40;;;;;;4901294;29;20119;-89
2022/03/11 11:10:49;;;;;;;22.88;13.27;;;10.50;96.00;;;;;;4900690;29;20048;-90
2022/03/11 11:13:14;;;;;;;23.13;12.93;;;10.40;96.10;;;;;;4901155;29;20480;-90
2022/03/11 11:15:46;;;;;;;22.85;13.10;;;10.40;95.50;;;;;;4918828;29;20051;-88
2022/03/11 11:18:13;;;;;;;20.65;12.95;;;10.50;94.90;;;;;;4901454;29;20063;-90
2022/03/11 11:20:45;;;;;;;23.05;12.73;;;10.00;95.30;;;;;;4918570;29;20092;-92
2022/03/11 11:23:15;;;;;;;22.83;12.20;;;11.00;94.70;;;;;;4901118;29;20056;-90
2022/03/11 11:25:43;;;;;;;21.63;13.13;;;11.00;92.80;;;;;;4901573;29;20142;-91
2022/03/11 11:28:20;;;;;;;22.05;13.35;;;12.20;93.30;;;;;;4901473;29;20036;-93
2022/03/11 11:31:02;;;;;;;24.52;12.63;;;10.80;92.60;;;;;;4901292;29;20750;-92
2022/03/11 11:33:28;;;;;;;21.27;12.93;;;12.30;93.10;;;;;;4906254;29;20094;-91
2022/03/11 11:36:53;;;;;;;21.92;12.50;;;10.60;93.20;;;;;;4919515;29;20057;-92
2022/03/11 11:39:38;;;;;;;22.05;12.85;;;11.70;92.20;;;;;;4920930;29;20036;-93
2022/03/11 11:42:12;;;;;;;18.67;12.60;;;14.30;90.70;;;;;;4902142;29;20091;-89
2022/03/11 11:44:45;;;;;;;21.13;12.50;;;12.60;90.90;;;;;;4903535;29;20048;-96
2022/03/11 11:47:16;;;;;;;19.63;12.63;;;11.50;91.70;;;;;;4882859;29;20128;-96
2022/03/11 11:49:49;;;;;;;21.35;11.93;;;12.60;90.50;;;;;;4869726;29;20057;-88
2022/03/11 11:58:30;;;;;;;20.73;12.00;;;12.10;90.40;;;;;;4934328;23;20060;-96
2022/03/11 12:01:08;;;;;;;19.90;12.65;;;12.20;88.40;;;;;;4918559;23;20099;-94
2022/03/11 12:03:49;;;;;;;20.67;12.98;;;12.10;88.40;;;;;;4917006;29;20500;-91
2022/03/11 12:06:55;;;;;;;18.08;12.13;;;12.30;86.80;;;;;;4912812;29;20040;-90
2022/03/11 12:09:55;;;;;;;20.30;12.10;;;12.30;86.00;;;;;;4915506;29;20448;-92
2022/03/11 12:12:32;;;;;;;21.63;11.68;;;11.60;83.40;;;;;;4925693;29;20123;-95
2022/03/11 12:15:01;;;;;;;20.80;12.65;;;12.00;84.60;;;;;;4939435;23;20143;-93
2022/03/11 12:23:17;;;;;;;19.08;12.38;;;12.60;85.00;;;;;;4876324;29;20056;-92
2022/03/11 12:29:42;;;;;;;20.67;12.13;;;13.80;81.80;;;;;;4862791;29;20613;-94
2022/03/11 12:32:11;;;;;;;18.73;12.05;;;12.60;81.60;;;;;;4936460;29;20059;-93
2022/03/11 12:34:56;;;;;;;17.25;11.55;;;12.60;82.00;;;;;;4922112;29;20492;-93
2022/03/11 12:37:26;;;;;;;21.55;12.07;;;12.90;81.30;;;;;;4917098;29;20111;-92
2022/03/11 12:40:18;;;;;;;;;;;;;;;;;;;;;
2022/03/11 12:43:12;;;;;;;18.48;11.35;;;12.80;78.60;;;;;;4941938;23;20118;-93
2022/03/11 12:45:44;;;;;;;19.92;11.90;;;12.90;81.10;;;;;;4951675;23;20069;-93
2022/03/11 12:51:51;;;;;;;19.23;11.40;;;13.20;77.80;;;;;;4910611;29;20051;-92
2022/03/11 12:54:20;;;;;;;20.83;12.15;;;12.60;79.00;;;;;;4900338;29;20044;-93
2022/03/11 12:56:48;;;;;;;18.42;11.38;;;13.00;79.00;;;;;;4900327;29;20578;-93
2022/03/11 12:59:17;;;;;;;19.92;11.05;;;14.10;78.90;;;;;;4900760;29;20046;-92
2022/03/11 13:01:51;;;;;;;18.08;11.18;;;14.00;77.90;;;;;;4900335;29;20048;-90
2022/03/11 13:08:08;;;;;;;19.90;11.00;;;13.40;74.70;;;;;;4825458;29;20053;-94
2022/03/11 13:10:46;;;;;;;18.65;11.02;;;12.90;76.10;;;;;;4898980;23;20030;-94
2022/03/11 13:13:22;;;;;;;20.15;11.55;;;12.70;74.00;;;;;;4919155;29;20051;-93
2022/03/11 13:15:55;;;;;;;18.50;11.50;;;13.00;75.40;;;;;;4919601;29;20043;-94
2022/03/11 13:18:35;;;;;;;17.97;11.17;;;13.30;74.80;;;;;;4919041;29;20140;-93